createdAt,value
2022-10-08T00:02:03.928Z,59.92
2022-10-08T00:07:07.880Z,59.91
2022-10-08T00:12:11.537Z,60.09
2022-10-08T00:17:14.973Z,60.02
2022-10-08T00:22:18.912Z,60.25
2022-10-08T00:27:22.493Z,60.15
2022-10-08T00:32:25.872Z,60.31
2022-10-08T00:37:29.229Z,60.26
2022-10-08T00:42:32.667Z,60.25
2022-10-08T00:47:42.134Z,60.20
2022-10-08T00:52:55.977Z,60.03
2022-10-08T00:58:09.788Z,60.14
2022-10-08T01:03:13.646Z,60.25
2022-10-08T01:08:45.865Z,60.24
2022-10-08T01:13:53.221Z,60.37
2022-10-08T01:19:30.376Z,60.34
2022-10-08T01:24:49.755Z,60.24
2022-10-08T01:29:55.352Z,60.48
2022-10-08T01:35:03.392Z,60.53
2022-10-08T01:40:12.782Z,60.99
2022-10-08T01:45:26.488Z,60.72
2022-10-08T01:50:48.706Z,60.79
2022-10-08T01:55:54.409Z,60.96
2022-10-08T02:01:07.819Z,61.07
2022-10-08T02:06:11.270Z,61.20
2022-10-08T02:11:15.088Z,61.17
2022-10-08T02:16:28.838Z,61.04
2022-10-08T02:21:34.328Z,61.05
2022-10-08T02:26:44.888Z,61.32
2022-10-08T02:31:56.474Z,61.18
2022-10-08T02:37:14.921Z,61.32
2022-10-08T02:42:23.293Z,61.50
2022-10-08T02:47:30.956Z,61.58
2022-10-08T02:52:38.192Z,61.63
2022-10-08T02:57:45.374Z,61.64
2022-10-08T03:02:58.917Z,61.53
2022-10-08T03:08:02.579Z,61.68
2022-10-08T03:13:07.790Z,61.65
2022-10-08T03:18:12.456Z,61.97
2022-10-08T03:23:18.645Z,61.59
2022-10-08T03:28:22.412Z,61.78
2022-10-08T03:33:25.709Z,61.80
2022-10-08T03:38:29.679Z,61.87
2022-10-08T03:43:34.207Z,61.82
2022-10-08T03:48:38.254Z,62.07
2022-10-08T03:53:43.557Z,62.08
2022-10-08T03:58:52.335Z,61.97
2022-10-08T04:03:56.397Z,61.95
2022-10-08T04:09:00.007Z,61.94
2022-10-08T04:14:04.046Z,62.05
2022-10-08T04:19:07.406Z,62.16
2022-10-08T04:24:10.732Z,62.22
2022-10-08T04:29:14.703Z,62.07
2022-10-08T04:34:18.515Z,62.15
2022-10-08T04:39:22.460Z,62.07
2022-10-08T04:44:26.253Z,62.18
2022-10-08T04:49:29.483Z,62.07
2022-10-08T04:54:32.632Z,62.00
2022-10-08T04:59:35.795Z,61.85
2022-10-08T05:04:39.614Z,61.36
2022-10-08T05:09:43.282Z,60.20
2022-10-08T05:14:47.267Z,59.35
2022-10-08T05:19:50.782Z,58.92
2022-10-08T05:24:54.720Z,58.64
2022-10-08T05:29:58.226Z,58.97
2022-10-08T05:35:01.642Z,59.20
2022-10-08T05:40:06.899Z,59.09
2022-10-08T05:45:10.712Z,58.75
2022-10-08T05:50:14.790Z,58.77
2022-10-08T05:55:18.227Z,58.63
2022-10-08T06:00:22.764Z,58.13
2022-10-08T06:05:30.084Z,58.03
2022-10-08T06:10:33.371Z,57.86
2022-10-08T06:15:36.718Z,58.06
2022-10-08T06:20:40.085Z,57.16
2022-10-08T06:25:43.743Z,56.94
2022-10-08T06:30:47.401Z,56.74
2022-10-08T06:35:51.122Z,56.49
2022-10-08T06:40:58.566Z,56.56
2022-10-08T06:46:06.894Z,56.55
2022-10-08T06:51:13.010Z,56.11
2022-10-08T06:56:16.414Z,56.38
2022-10-08T07:01:30.298Z,56.61
2022-10-08T07:06:36.369Z,56.05
2022-10-08T07:11:39.656Z,56.71
2022-10-08T07:16:43.227Z,56.54
2022-10-08T07:21:46.611Z,57.06
2022-10-08T07:26:50.080Z,56.15
2022-10-08T07:31:53.926Z,56.36
2022-10-08T07:36:57.593Z,56.18
2022-10-08T07:42:01.293Z,56.34
2022-10-08T07:47:04.810Z,56.44
2022-10-08T07:52:08.764Z,56.63
2022-10-08T07:57:14.383Z,56.41
2022-10-08T08:02:18.041Z,56.66
2022-10-08T08:07:22.285Z,56.32
2022-10-08T08:12:25.916Z,56.57
2022-10-08T08:17:29.339Z,56.16
2022-10-08T08:22:40.481Z,56.47
2022-10-08T08:27:44.040Z,56.38
2022-10-08T08:32:48.129Z,56.19
2022-10-08T08:37:51.654Z,56.06
2022-10-08T08:42:56.838Z,56.38
2022-10-08T08:48:11.121Z,56.14
2022-10-08T08:53:14.950Z,56.14
2022-10-08T08:58:28.821Z,55.96
2022-10-08T09:03:38.086Z,56.36
2022-10-08T09:08:48.234Z,56.31
2022-10-08T09:14:27.811Z,56.08
2022-10-08T09:19:31.803Z,55.87
2022-10-08T09:24:35.414Z,55.19
2022-10-08T09:29:38.905Z,55.42
2022-10-08T09:34:42.707Z,54.77
2022-10-08T09:40:22.364Z,54.85
2022-10-08T09:45:40.283Z,54.80
2022-10-08T09:50:58.480Z,54.73
2022-10-08T09:56:05.421Z,54.39
2022-10-08T10:01:16.977Z,54.37
2022-10-08T10:06:34.605Z,53.92
2022-10-08T10:11:47.455Z,53.88
2022-10-08T10:17:13.134Z,53.89
2022-10-08T10:22:27.063Z,53.40
2022-10-08T10:27:33.169Z,53.24
2022-10-08T10:32:56.542Z,52.82
2022-10-08T10:38:09.960Z,52.83
2022-10-08T10:43:31.862Z,52.34
2022-10-08T10:48:36.162Z,52.50
2022-10-08T10:53:51.635Z,52.59
2022-10-08T10:59:25.986Z,52.13
2022-10-08T11:04:47.467Z,52.41
2022-10-08T11:09:54.976Z,52.56
2022-10-08T11:15:29.563Z,52.73
2022-10-08T11:20:58.403Z,53.00
2022-10-08T11:26:22.318Z,52.71
2022-10-08T11:31:48.148Z,53.27
2022-10-08T11:37:09.566Z,53.32
2022-10-08T11:42:18.742Z,53.42
2022-10-08T11:47:43.085Z,53.41
2022-10-08T11:52:46.585Z,53.36
2022-10-08T11:58:09.084Z,53.14
2022-10-08T12:03:34.090Z,53.45
2022-10-08T12:09:04.061Z,53.98
2022-10-08T12:14:13.637Z,53.80
2022-10-08T12:19:35.683Z,53.78
2022-10-08T12:24:39.102Z,53.49
2022-10-08T12:30:01.332Z,53.95
2022-10-08T12:35:20.571Z,53.86
2022-10-08T12:40:42.340Z,54.34
2022-10-08T12:45:59.650Z,54.45
2022-10-08T12:51:17.222Z,54.75
2022-10-08T12:56:27.388Z,54.46
2022-10-08T13:01:32.094Z,54.25
2022-10-08T13:06:35.669Z,54.37
2022-10-08T13:11:38.955Z,54.46
2022-10-08T13:16:47.286Z,54.64
2022-10-08T13:22:01.956Z,54.25
2022-10-08T13:27:06.444Z,54.73
2022-10-08T13:32:13.349Z,54.42
2022-10-08T13:37:40.795Z,54.41
2022-10-08T13:42:51.124Z,54.45
2022-10-08T13:47:55.357Z,53.95
2022-10-08T13:53:01.667Z,54.17
2022-10-08T13:58:07.091Z,54.43
2022-10-08T14:03:11.024Z,54.57
2022-10-08T14:08:27.008Z,55.02
2022-10-08T14:13:30.105Z,55.27
2022-10-08T14:18:33.291Z,55.29
2022-10-08T14:23:36.744Z,55.52
2022-10-08T14:28:42.995Z,54.95
2022-10-08T14:33:46.452Z,55.45
2022-10-08T14:38:49.832Z,55.28
2022-10-08T14:43:54.156Z,55.18
2022-10-08T14:48:58.105Z,55.67
2022-10-08T14:54:01.380Z,55.48
2022-10-08T14:59:07.066Z,55.96
2022-10-08T15:04:13.794Z,55.65
2022-10-08T15:09:17.162Z,55.85
2022-10-08T15:14:20.649Z,56.36
2022-10-08T15:19:24.256Z,56.29
2022-10-08T15:24:28.021Z,56.19
2022-10-08T15:29:31.519Z,56.50
2022-10-08T15:34:35.034Z,56.69
2022-10-08T15:39:39.103Z,56.94
2022-10-08T15:44:44.260Z,56.80
2022-10-08T15:49:47.520Z,57.10
2022-10-08T15:54:50.736Z,57.13
2022-10-08T15:59:54.336Z,57.23
2022-10-08T16:04:57.801Z,57.40
2022-10-08T16:10:01.450Z,57.37
2022-10-08T16:15:06.912Z,57.61
2022-10-08T16:20:10.614Z,57.58
2022-10-08T16:25:13.978Z,57.97
2022-10-08T16:30:17.288Z,57.98
2022-10-08T16:35:20.794Z,57.85
2022-10-08T16:40:24.743Z,58.19
2022-10-08T16:45:36.631Z,57.97
2022-10-08T16:50:41.596Z,58.24
2022-10-08T16:55:44.697Z,58.27
2022-10-08T17:00:48.103Z,58.14
2022-10-08T17:05:51.539Z,58.19
2022-10-08T17:10:55.057Z,57.98
2022-10-08T17:16:08.344Z,57.99
2022-10-08T17:21:12.874Z,57.96
2022-10-08T17:26:24.702Z,58.02
2022-10-08T17:31:29.043Z,58.12
2022-10-08T17:36:34.774Z,58.18
2022-10-08T17:41:39.744Z,58.27
2022-10-08T17:46:46.357Z,58.21
2022-10-08T17:51:49.950Z,58.16
2022-10-08T17:56:53.497Z,58.21
2022-10-08T18:01:57.131Z,58.20
2022-10-08T18:07:03.411Z,58.35
2022-10-08T18:12:07.438Z,58.48
2022-10-08T18:17:10.871Z,58.65
2022-10-08T18:22:16.087Z,58.63
2022-10-08T18:27:19.553Z,58.65
2022-10-08T18:32:23.036Z,58.62
2022-10-08T18:37:27.354Z,58.66
2022-10-08T18:42:30.891Z,58.76
2022-10-08T18:47:34.250Z,58.86
2022-10-08T18:52:37.568Z,58.94
2022-10-08T18:57:40.744Z,59.11
2022-10-08T19:02:44.163Z,59.30
2022-10-08T19:07:47.695Z,59.35
2022-10-08T19:12:51.703Z,59.60
2022-10-08T19:17:56.458Z,59.59
2022-10-08T19:23:00.309Z,59.28
2022-10-08T19:28:03.790Z,59.56
2022-10-08T19:33:07.387Z,59.65
2022-10-08T19:38:10.636Z,59.77
2022-10-08T19:43:13.863Z,59.66
2022-10-08T19:48:17.304Z,59.84
2022-10-08T19:53:20.698Z,59.79
2022-10-08T19:58:24.487Z,59.81
2022-10-08T20:03:28.362Z,59.84
2022-10-08T20:08:31.798Z,59.85
2022-10-08T20:13:35.631Z,59.83
2022-10-08T20:18:39.076Z,60.03
2022-10-08T20:23:42.378Z,60.10
2022-10-08T20:28:47.680Z,59.92
2022-10-08T20:34:06.815Z,59.70
2022-10-08T20:39:12.158Z,59.73
2022-10-08T20:44:19.280Z,59.78
2022-10-08T20:49:23.073Z,59.79
2022-10-08T20:54:26.406Z,59.79
2022-10-08T20:59:29.929Z,59.72
2022-10-08T21:04:33.175Z,59.61
2022-10-08T21:09:37.534Z,59.36
2022-10-08T21:14:42.004Z,59.64
2022-10-08T21:19:45.556Z,59.44
2022-10-08T21:24:48.971Z,59.50
2022-10-08T21:29:52.286Z,59.43
2022-10-08T21:34:55.881Z,59.55
2022-10-08T21:39:59.407Z,59.83
2022-10-08T21:45:04.122Z,59.78
2022-10-08T21:50:08.518Z,59.84
2022-10-08T21:55:12.390Z,59.90
2022-10-08T22:00:15.970Z,59.84
2022-10-08T22:05:19.351Z,59.84
2022-10-08T22:10:22.589Z,60.03
2022-10-08T22:15:29.132Z,60.01
2022-10-08T22:20:32.444Z,60.08
2022-10-08T22:25:35.734Z,59.82
2022-10-08T22:30:39.185Z,59.83
2022-10-08T22:35:44.023Z,59.87
2022-10-08T22:40:47.628Z,59.71
2022-10-08T22:45:51.104Z,59.69
2022-10-08T22:50:54.387Z,59.67
2022-10-08T22:55:58.897Z,59.63
2022-10-08T23:01:10.937Z,59.58
2022-10-08T23:06:21.056Z,59.66
2022-10-08T23:11:25.396Z,59.62
2022-10-08T23:16:30.950Z,59.50
2022-10-08T23:21:35.961Z,59.49
2022-10-08T23:26:39.559Z,59.74
2022-10-08T23:31:43.362Z,59.75
2022-10-08T23:36:47.410Z,59.76
2022-10-08T23:41:50.639Z,59.78
2022-10-08T23:46:54.062Z,59.97
2022-10-08T23:51:57.513Z,60.06
2022-10-08T23:57:01.085Z,60.10
